sensor_id;sensor_type;location;lat;lon;timestamp;temperature;humidity
10123;DHT22;5101;49.038;8.710;2023-04-25T00:00:30;10.60;99.90
10123;DHT22;5101;49.038;8.710;2023-04-25T00:02:55;10.60;99.90
10123;DHT22;5101;49.038;8.710;2023-04-25T00:05:22;10.60;99.90
10123;DHT22;5101;49.038;8.710;2023-04-25T00:07:48;10.60;99.90
10123;DHT22;5101;49.038;8.710;2023-04-25T00:10:15;10.50;99.90
10123;DHT22;5101;49.038;8.710;2023-04-25T00:12:40;10.50;99.90
10123;DHT22;5101;49.038;8.710;2023-04-25T00:15:06;10.50;99.90
10123;DHT22;5101;49.038;8.710;2023-04-25T00:17:32;10.50;99.90
10123;DHT22;5101;49.038;8.710;2023-04-25T00:19:57;10.50;99.90
10123;DHT22;5101;49.038;8.710;2023-04-25T00:22:23;10.60;99.90
10123;DHT22;5101;49.038;8.710;2023-04-25T00:24:49;10.60;99.90
10123;DHT22;5101;49.038;8.710;2023-04-25T00:27:15;10.60;99.90
10123;DHT22;5101;49.038;8.710;2023-04-25T00:29:40;10.60;99.90
10123;DHT22;5101;49.038;8.710;2023-04-25T00:32:06;10.50;99.90
10123;DHT22;5101;49.038;8.710;2023-04-25T00:34:32;10.50;99.90
10123;DHT22;5101;49.038;8.710;2023-04-25T00:36:57;10.50;99.90
10123;DHT22;5101;49.038;8.710;2023-04-25T00:39:23;10.50;99.90
10123;DHT22;5101;49.038;8.710;2023-04-25T00:41:48;10.50;99.90
10123;DHT22;5101;49.038;8.710;2023-04-25T00:44:18;10.50;99.90
10123;DHT22;5101;49.038;8.710;2023-04-25T00:46:44;10.50;99.90
10123;DHT22;5101;49.038;8.710;2023-04-25T00:49:11;10.50;99.90
10123;DHT22;5101;49.038;8.710;2023-04-25T00:51:40;10.50;99.90
10123;DHT22;5101;49.038;8.710;2023-04-25T00:54:06;10.50;99.90
10123;DHT22;5101;49.038;8.710;2023-04-25T00:56:32;10.40;99.90
10123;DHT22;5101;49.038;8.710;2023-04-25T00:58:57;10.50;99.90
10123;DHT22;5101;49.038;8.710;2023-04-25T01:01:23;10.40;99.90
10123;DHT22;5101;49.038;8.710;2023-04-25T01:03:49;10.50;99.90
10123;DHT22;5101;49.038;8.710;2023-04-25T01:06:16;10.50;99.90
10123;DHT22;5101;49.038;8.710;2023-04-25T01:08:42;10.50;99.90
10123;DHT22;5101;49.038;8.710;2023-04-25T01:11:07;10.40;99.90
10123;DHT22;5101;49.038;8.710;2023-04-25T01:13:34;10.40;99.90
10123;DHT22;5101;49.038;8.710;2023-04-25T01:16:00;10.40;99.90
10123;DHT22;5101;49.038;8.710;2023-04-25T01:18:26;10.40;99.90
10123;DHT22;5101;49.038;8.710;2023-04-25T01:20:52;10.40;99.90
10123;DHT22;5101;49.038;8.710;2023-04-25T01:23:21;10.40;99.90
10123;DHT22;5101;49.038;8.710;2023-04-25T01:25:50;10.40;99.90
10123;DHT22;5101;49.038;8.710;2023-04-25T01:28:16;10.30;99.90
10123;DHT22;5101;49.038;8.710;2023-04-25T01:30:42;10.30;99.90
10123;DHT22;5101;49.038;8.710;2023-04-25T01:33:08;10.30;99.90
10123;DHT22;5101;49.038;8.710;2023-04-25T01:35:34;10.30;99.90
10123;DHT22;5101;49.038;8.710;2023-04-25T01:38:00;10.30;99.90
10123;DHT22;5101;49.038;8.710;2023-04-25T01:40:27;10.30;99.90
10123;DHT22;5101;49.038;8.710;2023-04-25T01:42:53;10.30;99.90
10123;DHT22;5101;49.038;8.710;2023-04-25T01:45:19;10.30;99.90
10123;DHT22;5101;49.038;8.710;2023-04-25T01:47:45;10.20;99.90
10123;DHT22;5101;49.038;8.710;2023-04-25T01:50:15;10.20;99.90
10123;DHT22;5101;49.038;8.710;2023-04-25T01:52:41;10.30;99.90
10123;DHT22;5101;49.038;8.710;2023-04-25T01:55:06;10.30;99.90
10123;DHT22;5101;49.038;8.710;2023-04-25T01:57:32;10.20;99.90
10123;DHT22;5101;49.038;8.710;2023-04-25T02:00:00;10.30;99.90
10123;DHT22;5101;49.038;8.710;2023-04-25T02:02:26;10.20;99.90
10123;DHT22;5101;49.038;8.710;2023-04-25T02:04:52;10.20;99.90
10123;DHT22;5101;49.038;8.710;2023-04-25T02:07:17;10.20;99.90
10123;DHT22;5101;49.038;8.710;2023-04-25T02:09:43;10.20;99.90
10123;DHT22;5101;49.038;8.710;2023-04-25T02:12:09;10.10;99.90
10123;DHT22;5101;49.038;8.710;2023-04-25T02:14:35;10.10;99.90
10123;DHT22;5101;49.038;8.710;2023-04-25T02:17:00;10.00;99.90
10123;DHT22;5101;49.038;8.710;2023-04-25T02:19:26;10.00;99.90
10123;DHT22;5101;49.038;8.710;2023-04-25T02:21:52;10.00;99.90
10123;DHT22;5101;49.038;8.710;2023-04-25T02:24:17;10.00;99.90
10123;DHT22;5101;49.038;8.710;2023-04-25T02:26:43;10.00;99.90
10123;DHT22;5101;49.038;8.710;2023-04-25T02:29:10;10.00;99.90
10123;DHT22;5101;49.038;8.710;2023-04-25T02:31:35;10.00;99.90
10123;DHT22;5101;49.038;8.710;2023-04-25T02:34:01;10.00;99.90
10123;DHT22;5101;49.038;8.710;2023-04-25T02:36:26;10.00;99.90
10123;DHT22;5101;49.038;8.710;2023-04-25T02:38:52;10.00;99.90
10123;DHT22;5101;49.038;8.710;2023-04-25T02:41:18;10.00;99.90
10123;DHT22;5101;49.038;8.710;2023-04-25T02:43:43;10.00;99.90
10123;DHT22;5101;49.038;8.710;2023-04-25T02:46:10;10.00;99.90
10123;DHT22;5101;49.038;8.710;2023-04-25T02:48:35;10.00;99.90
10123;DHT22;5101;49.038;8.710;2023-04-25T02:51:01;9.90;99.90
10123;DHT22;5101;49.038;8.710;2023-04-25T02:53:26;9.90;99.90
10123;DHT22;5101;49.038;8.710;2023-04-25T02:55:52;10.00;99.90
10123;DHT22;5101;49.038;8.710;2023-04-25T02:58:18;10.00;99.90
10123;DHT22;5101;49.038;8.710;2023-04-25T03:00:43;10.00;99.90
10123;DHT22;5101;49.038;8.710;2023-04-25T03:03:09;10.00;99.90
10123;DHT22;5101;49.038;8.710;2023-04-25T03:05:35;9.90;99.90
10123;DHT22;5101;49.038;8.710;2023-04-25T03:08:00;9.80;99.90
10123;DHT22;5101;49.038;8.710;2023-04-25T03:10:26;9.80;99.90
10123;DHT22;5101;49.038;8.710;2023-04-25T03:12:51;9.70;99.90
10123;DHT22;5101;49.038;8.710;2023-04-25T03:15:17;9.70;99.90
10123;DHT22;5101;49.038;8.710;2023-04-25T03:17:42;9.60;99.90
10123;DHT22;5101;49.038;8.710;2023-04-25T03:20:09;9.60;99.90
10123;DHT22;5101;49.038;8.710;2023-04-25T03:22:35;9.60;99.90
10123;DHT22;5101;49.038;8.710;2023-04-25T03:25:00;9.60;99.90
10123;DHT22;5101;49.038;8.710;2023-04-25T03:27:26;9.60;99.90
10123;DHT22;5101;49.038;8.710;2023-04-25T03:29:51;9.60;99.90
10123;DHT22;5101;49.038;8.710;2023-04-25T03:32:17;9.70;99.90
10123;DHT22;5101;49.038;8.710;2023-04-25T03:34:42;9.70;99.90
10123;DHT22;5101;49.038;8.710;2023-04-25T03:37:08;9.70;99.90
10123;DHT22;5101;49.038;8.710;2023-04-25T03:39:33;9.70;99.90
10123;DHT22;5101;49.038;8.710;2023-04-25T03:41:59;9.70;99.90
10123;DHT22;5101;49.038;8.710;2023-04-25T03:44:25;9.80;99.90
10123;DHT22;5101;49.038;8.710;2023-04-25T03:46:50;9.70;99.90
10123;DHT22;5101;49.038;8.710;2023-04-25T03:49:16;9.80;99.90
10123;DHT22;5101;49.038;8.710;2023-04-25T03:51:41;9.70;99.90
10123;DHT22;5101;49.038;8.710;2023-04-25T03:54:07;9.70;99.90
10123;DHT22;5101;49.038;8.710;2023-04-25T03:56:32;9.70;99.90
10123;DHT22;5101;49.038;8.710;2023-04-25T03:58:58;9.70;99.90
10123;DHT22;5101;49.038;8.710;2023-04-25T04:01:23;9.70;99.90
10123;DHT22;5101;49.038;8.710;2023-04-25T04:03:49;9.70;99.90
10123;DHT22;5101;49.038;8.710;2023-04-25T04:06:14;9.80;99.90
10123;DHT22;5101;49.038;8.710;2023-04-25T04:08:40;9.80;99.90
10123;DHT22;5101;49.038;8.710;2023-04-25T04:11:05;9.70;99.90
10123;DHT22;5101;49.038;8.710;2023-04-25T04:13:31;9.70;99.90
10123;DHT22;5101;49.038;8.710;2023-04-25T04:15:57;9.80;99.90
10123;DHT22;5101;49.038;8.710;2023-04-25T04:18:22;9.70;99.90
10123;DHT22;5101;49.038;8.710;2023-04-25T04:20:48;9.80;99.90
10123;DHT22;5101;49.038;8.710;2023-04-25T04:23:14;9.70;99.90
10123;DHT22;5101;49.038;8.710;2023-04-25T04:25:39;9.70;99.90
10123;DHT22;5101;49.038;8.710;2023-04-25T04:28:05;9.70;99.90
10123;DHT22;5101;49.038;8.710;2023-04-25T04:30:31;9.70;99.90
10123;DHT22;5101;49.038;8.710;2023-04-25T04:32:58;9.70;99.90
10123;DHT22;5101;49.038;8.710;2023-04-25T04:35:26;9.70;99.90
10123;DHT22;5101;49.038;8.710;2023-04-25T04:37:51;9.80;99.90
10123;DHT22;5101;49.038;8.710;2023-04-25T04:40:17;9.80;99.90
10123;DHT22;5101;49.038;8.710;2023-04-25T04:42:43;9.60;99.90
10123;DHT22;5101;49.038;8.710;2023-04-25T04:45:10;9.70;99.90
10123;DHT22;5101;49.038;8.710;2023-04-25T04:47:36;9.70;99.90
10123;DHT22;5101;49.038;8.710;2023-04-25T04:50:03;9.80;99.90
10123;DHT22;5101;49.038;8.710;2023-04-25T04:52:29;9.70;99.90
10123;DHT22;5101;49.038;8.710;2023-04-25T04:54:55;9.70;99.90
10123;DHT22;5101;49.038;8.710;2023-04-25T04:57:20;9.70;99.90
10123;DHT22;5101;49.038;8.710;2023-04-25T04:59:46;9.70;99.90
10123;DHT22;5101;49.038;8.710;2023-04-25T05:02:11;9.70;99.90
10123;DHT22;5101;49.038;8.710;2023-04-25T05:04:37;9.70;99.90
10123;DHT22;5101;49.038;8.710;2023-04-25T05:07:02;9.70;99.90
10123;DHT22;5101;49.038;8.710;2023-04-25T05:09:28;9.70;99.90
10123;DHT22;5101;49.038;8.710;2023-04-25T05:11:53;9.70;99.90
10123;DHT22;5101;49.038;8.710;2023-04-25T05:14:19;9.70;99.90
10123;DHT22;5101;49.038;8.710;2023-04-25T05:16:44;9.80;99.90
10123;DHT22;5101;49.038;8.710;2023-04-25T05:19:10;9.80;99.90
10123;DHT22;5101;49.038;8.710;2023-04-25T05:21:36;9.80;99.90
10123;DHT22;5101;49.038;8.710;2023-04-25T05:24:01;9.80;99.90
10123;DHT22;5101;49.038;8.710;2023-04-25T05:26:27;9.90;99.90
10123;DHT22;5101;49.038;8.710;2023-04-25T05:28:56;9.90;99.90
10123;DHT22;5101;49.038;8.710;2023-04-25T05:31:22;9.90;99.90
10123;DHT22;5101;49.038;8.710;2023-04-25T05:33:47;9.90;99.90
10123;DHT22;5101;49.038;8.710;2023-04-25T05:36:13;10.00;99.90
10123;DHT22;5101;49.038;8.710;2023-04-25T05:38:38;9.90;99.90
10123;DHT22;5101;49.038;8.710;2023-04-25T05:41:04;10.00;99.90
10123;DHT22;5101;49.038;8.710;2023-04-25T05:43:29;10.10;99.90
10123;DHT22;5101;49.038;8.710;2023-04-25T05:45:55;10.10;99.90
10123;DHT22;5101;49.038;8.710;2023-04-25T05:48:20;10.20;99.90
10123;DHT22;5101;49.038;8.710;2023-04-25T05:50:46;10.20;99.90
10123;DHT22;5101;49.038;8.710;2023-04-25T05:53:11;10.30;99.90
10123;DHT22;5101;49.038;8.710;2023-04-25T05:55:37;10.30;99.90
10123;DHT22;5101;49.038;8.710;2023-04-25T05:58:02;10.40;99.90
10123;DHT22;5101;49.038;8.710;2023-04-25T06:00:28;10.50;99.90
10123;DHT22;5101;49.038;8.710;2023-04-25T06:02:54;10.60;99.90
10123;DHT22;5101;49.038;8.710;2023-04-25T06:05:20;10.80;99.90
10123;DHT22;5101;49.038;8.710;2023-04-25T06:07:45;10.90;99.90
10123;DHT22;5101;49.038;8.710;2023-04-25T06:10:11;11.10;99.90
10123;DHT22;5101;49.038;8.710;2023-04-25T06:12:36;11.30;99.90
10123;DHT22;5101;49.038;8.710;2023-04-25T06:15:04;11.50;99.90
10123;DHT22;5101;49.038;8.710;2023-04-25T06:17:29;11.70;99.90
10123;DHT22;5101;49.038;8.710;2023-04-25T06:19:55;11.90;99.90
10123;DHT22;5101;49.038;8.710;2023-04-25T06:22:21;12.10;99.90
10123;DHT22;5101;49.038;8.710;2023-04-25T06:24:46;12.30;99.90
10123;DHT22;5101;49.038;8.710;2023-04-25T06:27:12;12.30;99.90
10123;DHT22;5101;49.038;8.710;2023-04-25T06:29:37;12.40;99.90
10123;DHT22;5101;49.038;8.710;2023-04-25T06:32:03;12.50;99.40
10123;DHT22;5101;49.038;8.710;2023-04-25T06:34:29;12.60;98.50
10123;DHT22;5101;49.038;8.710;2023-04-25T06:36:55;12.70;97.90
10123;DHT22;5101;49.038;8.710;2023-04-25T06:39:20;12.80;97.50
10123;DHT22;5101;49.038;8.710;2023-04-25T06:41:48;12.80;97.00
10123;DHT22;5101;49.038;8.710;2023-04-25T06:44:14;12.80;96.40
10123;DHT22;5101;49.038;8.710;2023-04-25T06:46:40;12.70;96.00
10123;DHT22;5101;49.038;8.710;2023-04-25T06:49:06;12.70;95.70
10123;DHT22;5101;49.038;8.710;2023-04-25T06:51:31;12.70;95.40
10123;DHT22;5101;49.038;8.710;2023-04-25T06:53:57;12.70;95.10
10123;DHT22;5101;49.038;8.710;2023-04-25T06:56:23;12.70;94.90
10123;DHT22;5101;49.038;8.710;2023-04-25T06:58:49;12.60;94.80
10123;DHT22;5101;49.038;8.710;2023-04-25T07:01:14;12.50;94.80
10123;DHT22;5101;49.038;8.710;2023-04-25T07:03:40;12.40;94.80
10123;DHT22;5101;49.038;8.710;2023-04-25T07:06:05;12.40;94.80
10123;DHT22;5101;49.038;8.710;2023-04-25T07:08:31;12.30;94.90
10123;DHT22;5101;49.038;8.710;2023-04-25T07:10:57;12.20;95.00
10123;DHT22;5101;49.038;8.710;2023-04-25T07:13:22;12.20;95.20
10123;DHT22;5101;49.038;8.710;2023-04-25T07:15:48;12.00;95.40
10123;DHT22;5101;49.038;8.710;2023-04-25T07:18:14;12.00;95.60
10123;DHT22;5101;49.038;8.710;2023-04-25T07:20:39;11.90;95.70
10123;DHT22;5101;49.038;8.710;2023-04-25T07:23:05;11.90;95.90
10123;DHT22;5101;49.038;8.710;2023-04-25T07:25:30;11.90;96.00
10123;DHT22;5101;49.038;8.710;2023-04-25T07:27:56;11.90;96.00
10123;DHT22;5101;49.038;8.710;2023-04-25T07:30:22;11.90;95.90
10123;DHT22;5101;49.038;8.710;2023-04-25T07:32:48;11.90;95.80
10123;DHT22;5101;49.038;8.710;2023-04-25T07:35:14;11.90;95.90
10123;DHT22;5101;49.038;8.710;2023-04-25T07:37:40;11.80;96.00
10123;DHT22;5101;49.038;8.710;2023-04-25T07:40:06;11.80;96.00
10123;DHT22;5101;49.038;8.710;2023-04-25T07:42:33;11.80;96.00
10123;DHT22;5101;49.038;8.710;2023-04-25T07:44:58;11.80;96.00
10123;DHT22;5101;49.038;8.710;2023-04-25T07:47:24;11.70;96.00
10123;DHT22;5101;49.038;8.710;2023-04-25T07:49:49;11.70;96.00
10123;DHT22;5101;49.038;8.710;2023-04-25T07:52:15;11.70;96.00
10123;DHT22;5101;49.038;8.710;2023-04-25T07:54:41;11.60;96.00
10123;DHT22;5101;49.038;8.710;2023-04-25T07:57:07;11.50;96.10
10123;DHT22;5101;49.038;8.710;2023-04-25T07:59:32;11.60;96.40
10123;DHT22;5101;49.038;8.710;2023-04-25T08:01:58;11.60;96.60
10123;DHT22;5101;49.038;8.710;2023-04-25T08:04:24;11.50;96.80
10123;DHT22;5101;49.038;8.710;2023-04-25T08:06:50;11.50;96.90
10123;DHT22;5101;49.038;8.710;2023-04-25T08:09:15;11.60;97.10
10123;DHT22;5101;49.038;8.710;2023-04-25T08:11:42;11.50;97.30
10123;DHT22;5101;49.038;8.710;2023-04-25T08:14:08;11.40;97.50
10123;DHT22;5101;49.038;8.710;2023-04-25T08:16:33;11.40;97.70
10123;DHT22;5101;49.038;8.710;2023-04-25T08:19:02;11.30;98.20
10123;DHT22;5101;49.038;8.710;2023-04-25T08:21:27;11.30;98.50
10123;DHT22;5101;49.038;8.710;2023-04-25T08:23:53;11.40;98.70
10123;DHT22;5101;49.038;8.710;2023-04-25T08:26:18;11.40;98.80
10123;DHT22;5101;49.038;8.710;2023-04-25T08:28:44;11.50;99.00
10123;DHT22;5101;49.038;8.710;2023-04-25T08:31:09;11.40;99.10
10123;DHT22;5101;49.038;8.710;2023-04-25T08:33:35;11.40;99.10
10123;DHT22;5101;49.038;8.710;2023-04-25T08:36:01;11.40;99.10
10123;DHT22;5101;49.038;8.710;2023-04-25T08:38:27;11.40;99.10
10123;DHT22;5101;49.038;8.710;2023-04-25T08:40:53;11.50;99.20
10123;DHT22;5101;49.038;8.710;2023-04-25T08:43:20;11.50;99.20
10123;DHT22;5101;49.038;8.710;2023-04-25T08:45:46;11.50;99.20
10123;DHT22;5101;49.038;8.710;2023-04-25T08:48:14;11.50;99.30
10123;DHT22;5101;49.038;8.710;2023-04-25T08:50:50;11.50;99.40
10123;DHT22;5101;49.038;8.710;2023-04-25T08:53:17;11.60;99.50
10123;DHT22;5101;49.038;8.710;2023-04-25T08:55:46;11.60;99.60
10123;DHT22;5101;49.038;8.710;2023-04-25T08:58:13;11.60;99.80
10123;DHT22;5101;49.038;8.710;2023-04-25T09:00:39;11.50;99.90
10123;DHT22;5101;49.038;8.710;2023-04-25T09:03:05;11.60;99.90
10123;DHT22;5101;49.038;8.710;2023-04-25T09:05:32;11.30;99.90
10123;DHT22;5101;49.038;8.710;2023-04-25T09:07:58;11.20;99.90
10123;DHT22;5101;49.038;8.710;2023-04-25T09:10:23;11.10;99.90
10123;DHT22;5101;49.038;8.710;2023-04-25T09:13:08;10.90;99.90
10123;DHT22;5101;49.038;8.710;2023-04-25T09:15:55;10.90;99.90
10123;DHT22;5101;49.038;8.710;2023-04-25T09:18:29;10.90;99.90
10123;DHT22;5101;49.038;8.710;2023-04-25T09:20:56;10.80;99.90
10123;DHT22;5101;49.038;8.710;2023-04-25T09:23:22;10.70;99.80
10123;DHT22;5101;49.038;8.710;2023-04-25T09:25:52;10.70;99.80
10123;DHT22;5101;49.038;8.710;2023-04-25T09:28:25;10.70;99.90
10123;DHT22;5101;49.038;8.710;2023-04-25T09:30:55;10.70;99.90
10123;DHT22;5101;49.038;8.710;2023-04-25T09:33:30;10.80;99.90
10123;DHT22;5101;49.038;8.710;2023-04-25T09:36:09;10.70;99.90
10123;DHT22;5101;49.038;8.710;2023-04-25T09:38:44;10.70;99.90
10123;DHT22;5101;49.038;8.710;2023-04-25T09:41:11;10.80;99.90
10123;DHT22;5101;49.038;8.710;2023-04-25T09:43:37;10.70;99.90
10123;DHT22;5101;49.038;8.710;2023-04-25T09:46:08;10.70;99.90
10123;DHT22;5101;49.038;8.710;2023-04-25T09:48:35;10.70;99.90
10123;DHT22;5101;49.038;8.710;2023-04-25T09:53:39;10.70;99.90
10123;DHT22;5101;49.038;8.710;2023-04-25T09:56:07;10.70;99.90
10123;DHT22;5101;49.038;8.710;2023-04-25T09:58:33;10.70;99.90
10123;DHT22;5101;49.038;8.710;2023-04-25T10:01:01;10.70;99.90
10123;DHT22;5101;49.038;8.710;2023-04-25T10:03:29;10.70;99.90
10123;DHT22;5101;49.038;8.710;2023-04-25T10:05:56;10.60;99.90
10123;DHT22;5101;49.038;8.710;2023-04-25T10:08:24;10.70;99.90
10123;DHT22;5101;49.038;8.710;2023-04-25T10:10:52;10.70;99.90
10123;DHT22;5101;49.038;8.710;2023-04-25T10:13:17;10.70;99.90
10123;DHT22;5101;49.038;8.710;2023-04-25T10:15:44;10.70;99.90
10123;DHT22;5101;49.038;8.710;2023-04-25T10:18:10;10.70;99.90
10123;DHT22;5101;49.038;8.710;2023-04-25T10:20:36;10.70;99.90
10123;DHT22;5101;49.038;8.710;2023-04-25T10:23:08;10.80;99.90
10123;DHT22;5101;49.038;8.710;2023-04-25T10:25:36;10.80;99.90
10123;DHT22;5101;49.038;8.710;2023-04-25T10:28:03;10.90;99.90
10123;DHT22;5101;49.038;8.710;2023-04-25T10:30:29;10.90;99.90
10123;DHT22;5101;49.038;8.710;2023-04-25T10:32:55;10.90;99.90
10123;DHT22;5101;49.038;8.710;2023-04-25T10:35:27;11.00;99.90
10123;DHT22;5101;49.038;8.710;2023-04-25T10:38:11;11.00;99.90
10123;DHT22;5101;49.038;8.710;2023-04-25T10:40:38;10.90;99.90
10123;DHT22;5101;49.038;8.710;2023-04-25T10:43:33;10.90;99.90
10123;DHT22;5101;49.038;8.710;2023-04-25T10:45:59;11.00;99.90
10123;DHT22;5101;49.038;8.710;2023-04-25T10:48:27;11.00;99.90
10123;DHT22;5101;49.038;8.710;2023-04-25T10:51:12;11.10;99.90
10123;DHT22;5101;49.038;8.710;2023-04-25T10:53:41;11.10;99.90
10123;DHT22;5101;49.038;8.710;2023-04-25T10:56:19;11.10;99.90
10123;DHT22;5101;49.038;8.710;2023-04-25T10:58:46;11.10;99.90
10123;DHT22;5101;49.038;8.710;2023-04-25T11:01:13;11.10;99.90
10123;DHT22;5101;49.038;8.710;2023-04-25T11:03:43;11.10;99.90
10123;DHT22;5101;49.038;8.710;2023-04-25T11:06:22;11.10;99.90
10123;DHT22;5101;49.038;8.710;2023-04-25T11:08:50;11.00;99.90
10123;DHT22;5101;49.038;8.710;2023-04-25T11:11:17;11.00;99.90
10123;DHT22;5101;49.038;8.710;2023-04-25T11:13:43;11.10;99.90
10123;DHT22;5101;49.038;8.710;2023-04-25T11:16:08;11.10;99.90
10123;DHT22;5101;49.038;8.710;2023-04-25T11:18:34;11.10;99.90
10123;DHT22;5101;49.038;8.710;2023-04-25T11:21:00;11.20;99.90
10123;DHT22;5101;49.038;8.710;2023-04-25T11:23:26;11.20;99.90
10123;DHT22;5101;49.038;8.710;2023-04-25T11:25:52;11.20;99.90
10123;DHT22;5101;49.038;8.710;2023-04-25T11:28:21;11.10;99.90
10123;DHT22;5101;49.038;8.710;2023-04-25T11:30:49;11.10;99.90
10123;DHT22;5101;49.038;8.710;2023-04-25T11:33:15;11.20;99.90
10123;DHT22;5101;49.038;8.710;2023-04-25T11:35:41;11.30;99.90
10123;DHT22;5101;49.038;8.710;2023-04-25T11:38:07;11.40;99.90
10123;DHT22;5101;49.038;8.710;2023-04-25T11:40:32;11.50;99.90
10123;DHT22;5101;49.038;8.710;2023-04-25T11:43:00;11.40;99.90
10123;DHT22;5101;49.038;8.710;2023-04-25T11:45:26;11.40;99.90
10123;DHT22;5101;49.038;8.710;2023-04-25T11:47:51;11.50;99.90
10123;DHT22;5101;49.038;8.710;2023-04-25T11:50:17;11.60;99.90
10123;DHT22;5101;49.038;8.710;2023-04-25T11:52:44;11.70;99.90
10123;DHT22;5101;49.038;8.710;2023-04-25T11:55:15;11.80;99.90
10123;DHT22;5101;49.038;8.710;2023-04-25T11:57:42;11.80;99.90
10123;DHT22;5101;49.038;8.710;2023-04-25T12:02:51;12.10;99.90
10123;DHT22;5101;49.038;8.710;2023-04-25T12:05:16;12.20;99.90
10123;DHT22;5101;49.038;8.710;2023-04-25T12:07:42;12.30;99.90
10123;DHT22;5101;49.038;8.710;2023-04-25T12:10:13;12.30;99.90
10123;DHT22;5101;49.038;8.710;2023-04-25T12:12:42;12.40;99.90
10123;DHT22;5101;49.038;8.710;2023-04-25T12:15:15;12.50;99.90
10123;DHT22;5101;49.038;8.710;2023-04-25T12:17:47;12.60;99.90
10123;DHT22;5101;49.038;8.710;2023-04-25T12:20:15;12.70;99.90
10123;DHT22;5101;49.038;8.710;2023-04-25T12:22:43;12.80;99.90
10123;DHT22;5101;49.038;8.710;2023-04-25T12:25:11;12.70;99.90
10123;DHT22;5101;49.038;8.710;2023-04-25T12:27:37;12.70;99.90
10123;DHT22;5101;49.038;8.710;2023-04-25T12:30:03;12.70;99.90
10123;DHT22;5101;49.038;8.710;2023-04-25T12:32:29;12.80;99.90
10123;DHT22;5101;49.038;8.710;2023-04-25T12:34:54;12.90;99.90
10123;DHT22;5101;49.038;8.710;2023-04-25T12:37:21;13.00;99.90
10123;DHT22;5101;49.038;8.710;2023-04-25T12:39:46;13.10;99.90
10123;DHT22;5101;49.038;8.710;2023-04-25T12:42:12;13.30;99.90
10123;DHT22;5101;49.038;8.710;2023-04-25T12:44:38;13.40;99.90
10123;DHT22;5101;49.038;8.710;2023-04-25T12:47:04;13.50;99.90
10123;DHT22;5101;49.038;8.710;2023-04-25T12:49:29;13.50;99.90
10123;DHT22;5101;49.038;8.710;2023-04-25T12:51:55;13.60;99.90
10123;DHT22;5101;49.038;8.710;2023-04-25T12:54:20;13.60;99.90
10123;DHT22;5101;49.038;8.710;2023-04-25T12:56:46;13.50;99.90
10123;DHT22;5101;49.038;8.710;2023-04-25T12:59:11;13.50;99.90
10123;DHT22;5101;49.038;8.710;2023-04-25T13:01:37;13.50;99.90
10123;DHT22;5101;49.038;8.710;2023-04-25T13:04:02;13.50;99.90
10123;DHT22;5101;49.038;8.710;2023-04-25T13:06:28;13.40;99.90
10123;DHT22;5101;49.038;8.710;2023-04-25T13:08:55;13.50;99.50
10123;DHT22;5101;49.038;8.710;2023-04-25T13:11:21;13.50;99.30
10123;DHT22;5101;49.038;8.710;2023-04-25T13:13:46;13.50;99.00
10123;DHT22;5101;49.038;8.710;2023-04-25T13:16:12;13.60;99.00
10123;DHT22;5101;49.038;8.710;2023-04-25T13:18:39;13.60;98.70
10123;DHT22;5101;49.038;8.710;2023-04-25T13:21:05;13.60;98.30
10123;DHT22;5101;49.038;8.710;2023-04-25T13:23:30;13.60;98.10
10123;DHT22;5101;49.038;8.710;2023-04-25T13:25:56;13.80;97.80
10123;DHT22;5101;49.038;8.710;2023-04-25T13:28:27;13.80;97.50
10123;DHT22;5101;49.038;8.710;2023-04-25T13:30:53;13.80;97.50
10123;DHT22;5101;49.038;8.710;2023-04-25T13:33:19;13.60;97.30
10123;DHT22;5101;49.038;8.710;2023-04-25T13:35:46;13.60;97.30
10123;DHT22;5101;49.038;8.710;2023-04-25T13:38:15;13.50;97.10
10123;DHT22;5101;49.038;8.710;2023-04-25T13:40:40;13.30;96.90
10123;DHT22;5101;49.038;8.710;2023-04-25T13:43:05;13.30;96.80
10123;DHT22;5101;49.038;8.710;2023-04-25T13:45:32;13.30;96.80
10123;DHT22;5101;49.038;8.710;2023-04-25T13:47:57;13.30;96.70
10123;DHT22;5101;49.038;8.710;2023-04-25T13:50:23;13.10;96.80
10123;DHT22;5101;49.038;8.710;2023-04-25T13:52:48;13.10;96.90
10123;DHT22;5101;49.038;8.710;2023-04-25T13:55:14;13.20;96.80
10123;DHT22;5101;49.038;8.710;2023-04-25T13:57:40;13.30;96.60
10123;DHT22;5101;49.038;8.710;2023-04-25T14:00:06;13.30;96.40
10123;DHT22;5101;49.038;8.710;2023-04-25T14:02:37;13.20;96.60
10123;DHT22;5101;49.038;8.710;2023-04-25T14:05:04;13.20;96.70
10123;DHT22;5101;49.038;8.710;2023-04-25T14:07:30;13.20;96.70
10123;DHT22;5101;49.038;8.710;2023-04-25T14:09:55;13.30;96.60
10123;DHT22;5101;49.038;8.710;2023-04-25T14:12:22;13.30;96.60
10123;DHT22;5101;49.038;8.710;2023-04-25T14:14:48;13.30;96.40
10123;DHT22;5101;49.038;8.710;2023-04-25T14:17:13;13.40;96.30
10123;DHT22;5101;49.038;8.710;2023-04-25T14:19:39;13.50;96.10
10123;DHT22;5101;49.038;8.710;2023-04-25T14:22:08;13.50;95.90
10123;DHT22;5101;49.038;8.710;2023-04-25T14:24:34;13.50;95.40
10123;DHT22;5101;49.038;8.710;2023-04-25T14:27:00;13.50;94.90
10123;DHT22;5101;49.038;8.710;2023-04-25T14:29:26;13.60;94.80
10123;DHT22;5101;49.038;8.710;2023-04-25T14:31:51;13.60;94.40
10123;DHT22;5101;49.038;8.710;2023-04-25T14:34:17;13.50;94.30
10123;DHT22;5101;49.038;8.710;2023-04-25T14:36:42;13.50;94.10
10123;DHT22;5101;49.038;8.710;2023-04-25T14:39:08;13.50;94.10
10123;DHT22;5101;49.038;8.710;2023-04-25T14:41:34;13.60;93.80
10123;DHT22;5101;49.038;8.710;2023-04-25T14:43:59;13.60;93.60
10123;DHT22;5101;49.038;8.710;2023-04-25T14:46:25;13.70;93.50
10123;DHT22;5101;49.038;8.710;2023-04-25T14:48:51;13.80;93.50
10123;DHT22;5101;49.038;8.710;2023-04-25T14:51:16;13.70;93.50
10123;DHT22;5101;49.038;8.710;2023-04-25T14:53:42;13.80;93.30
10123;DHT22;5101;49.038;8.710;2023-04-25T14:56:07;13.80;93.00
10123;DHT22;5101;49.038;8.710;2023-04-25T14:58:34;13.70;92.60
10123;DHT22;5101;49.038;8.710;2023-04-25T15:01:00;13.70;92.30
10123;DHT22;5101;49.038;8.710;2023-04-25T15:03:26;13.70;92.20
10123;DHT22;5101;49.038;8.710;2023-04-25T15:05:52;13.80;92.30
10123;DHT22;5101;49.038;8.710;2023-04-25T15:08:18;13.80;92.30
10123;DHT22;5101;49.038;8.710;2023-04-25T15:10:44;13.80;92.10
10123;DHT22;5101;49.038;8.710;2023-04-25T15:13:10;13.80;92.00
10123;DHT22;5101;49.038;8.710;2023-04-25T15:15:36;13.80;92.10
10123;DHT22;5101;49.038;8.710;2023-04-25T15:18:02;13.80;92.20
10123;DHT22;5101;49.038;8.710;2023-04-25T15:20:27;13.80;92.30
10123;DHT22;5101;49.038;8.710;2023-04-25T15:22:53;13.60;92.30
10123;DHT22;5101;49.038;8.710;2023-04-25T15:25:19;13.60;92.60
10123;DHT22;5101;49.038;8.710;2023-04-25T15:27:45;13.50;92.90
10123;DHT22;5101;49.038;8.710;2023-04-25T15:30:14;13.60;93.30
10123;DHT22;5101;49.038;8.710;2023-04-25T15:32:41;13.60;93.70
10123;DHT22;5101;49.038;8.710;2023-04-25T15:35:07;13.60;93.80
10123;DHT22;5101;49.038;8.710;2023-04-25T15:37:34;13.60;93.70
10123;DHT22;5101;49.038;8.710;2023-04-25T15:40:02;13.60;93.50
10123;DHT22;5101;49.038;8.710;2023-04-25T15:42:38;13.60;93.40
10123;DHT22;5101;49.038;8.710;2023-04-25T15:45:08;13.60;93.40
10123;DHT22;5101;49.038;8.710;2023-04-25T15:47:35;13.50;93.40
10123;DHT22;5101;49.038;8.710;2023-04-25T15:50:02;13.50;93.40